Weather at Chinazón Airport

Public forecast

Using degrees Celsius for public forecast. Weather courtesy of forecast.io.

Closest aviation weather report (METAR) to Chinazón Airport

Closest report is Dr. Antonio Nicolás Briceño Airport, 20.7 nm (38.4 km) E.

2024/07/20 05:03 (retrieved 51 minutes ago)

SVVL 200503Z AUTO ///01KT NCD ///// Q////

Closest aviation forecast (TAF) to Chinazón Airport

Forecast is more than 12 hours old.

Closest forecast is Maurice Bishop International Airport, 563.1 nm (1,042.8 km) ENE.

2024/07/19 12:00 (retrieved 18 hours ago)

TAF TGPY 191000Z 1912/2012 11012KT 9999 SCT018